Terminal Aerodrome Forecast
Issued by NWS Chicago, IL

Home | Current Version | Previous Version | Text Only | Print | Product List | Glossary Off
Versions: 1 2 3 4 5 6 7 8 9 10 11 12 13 14 15 16 17 18 19 20 21 22 23 24 25 26 27 28 29 30 31 32 33 34 35 36 37 38

000
FTUS43 KLOT 291200 AAA
TAFRFD
TAF AMD
KRFD 291254Z 2913/3012 17006KT P6SM VCSH FEW025 BKN050
      TEMPO 2913/2915 5SM -TSRA BKN035CB
     FM291600 18010KT P6SM VCTS SCT035CB BKN060
     FM291700 19013G20KT P6SM VCSH SCT035 BKN050
     FM300100 18010KT P6SM VCTS SCT035CB OVC050 PROB30 3002/3006 4SM
      TSRA BR BKN035CB
     FM300800 22012KT 4SM -SHRA BR BKN025 OVC050=

USA.gov is the U.S. government's official web portal to all federal, state and local government web resources and services.